X  Close Metar Aviation Weather Data     KSDL Scottsdale Airport
Temperature
75°F Temperature
16°F Dewpoint
10% Humidity



Wind
5 MPH
8 KM/H
2 M/S
4 KTS



180°
South
Current Conditions

Clear Clear
Pressure 1012.22 (hPa) - 29.89 (inHg)
Visibility 9.9 (mile) - 16 (km)
Airport
Airport-code KSDL

Location: Scottsdale Airport
Distance: 14 (mi)

Metar:
KSDL 161753Z 18004KT 10SM CLR 24/M09 A2989 RMK AO2 SLP101 T02441089 10244 20128 50001

Time: 2021-04-16 10:53 MST